Terminal Aerodrome Forecast
Issued by NWS Paducah, KY

Home | Current Version | Previous Version | Graphics & Text | Print | Product List | Glossary On
Versions: 1 2 3 4 5 6 7 8 9 10 11 12 13 14
718
FTUS43 KPAH 211121
TAFPAH
TAF
KPAH 211121Z 2112/2212 17005KT P6SM SCT050 BKN250
     FM211500 17009G16KT P6SM BKN050 OVC200
     FM220600 16009G15KT P6SM BKN035 OVC120 PROB30 2206/2212 6SM
      SHRA BR BKN035=

USA.gov is the U.S. government's official web portal to all federal, state and local government web resources and services.